Time;durP1;ratioP1;P1;durP2;ratioP2;P2;SDS_P1;SDS_P2;PMS_P1;PMS_P2;Temp;Humidity;BMP_temperature;BMP_pressure;BME280_temperature;BME280_humidity;BME280_pressure;Samples;Min_cycle;Max_cycle;Signal;HPM_P1;HPM_P2
2023/12/15 00:00:16;;;;;;;0.00;0.00;;;;;;;7.70;78.84;101720.59;4867682;29;20032;-76
2023/12/15 00:02:42;;;;;;;0.00;0.00;;;;;;;7.53;78.26;101697.59;4885424;29;20028;-76
2023/12/15 00:05:08;;;;;;;0.00;0.00;;;;;;;7.55;78.77;101711.81;4879877;29;20712;-77
2023/12/15 00:07:36;;;;;;;0.00;0.00;;;;;;;7.43;78.29;101712.50;4878087;29;20115;-75
2023/12/15 00:10:01;;;;;;;0.00;0.00;;;;;;;7.32;78.50;101694.94;4856697;29;20136;-75
2023/12/15 00:12:26;;;;;;;0.08;0.08;;;;;;;7.57;78.58;101740.50;4866043;29;20108;-75
2023/12/15 00:14:54;;;;;;;0.00;0.00;;;;;;;7.62;78.50;101750.75;4859148;29;20037;-76
2023/12/15 00:17:19;;;;;;;0.00;0.00;;;;;;;7.62;78.26;101750.75;4878052;29;20032;-78
2023/12/15 00:19:45;;;;;;;0.00;0.00;;;;;;;7.55;77.64;101739.06;4869257;29;20048;-77
2023/12/15 00:22:11;;;;;;;0.00;0.00;;;;;;;7.57;78.03;101742.41;4894215;29;20712;-78
2023/12/15 00:24:36;;;;;;;0.00;0.00;;;;;;;7.64;77.87;101759.56;4878167;29;20024;-77
2023/12/15 00:27:02;;;;;;;0.00;0.00;;;;;;;7.63;77.10;101749.72;4855109;29;20558;-76
2023/12/15 00:29:27;;;;;;;0.00;0.00;;;;;;;7.53;76.82;101730.28;4857079;29;20060;-78
2023/12/15 00:31:52;;;;;;;0.00;0.00;;;;;;;7.62;76.51;101739.88;4876043;29;20064;-76
2023/12/15 00:34:18;;;;;;;0.00;0.00;;;;;;;7.76;75.97;101773.34;4875028;29;20156;-76
2023/12/15 00:36:43;;;;;;;0.00;0.00;;;;;;;7.39;74.74;101704.97;4876774;29;20056;-75
2023/12/15 00:39:11;;;;;;;0.00;0.00;;;;;;;7.59;75.37;101746.56;4878931;29;20124;-75
2023/12/15 00:41:38;;;;;;;0.00;0.00;;;;;;;7.51;75.07;101733.22;4867297;29;20511;-76
2023/12/15 00:44:04;;;;;;;0.00;0.00;;;;;;;7.50;75.38;101751.44;4878770;29;20044;-75
2023/12/15 00:46:32;;;;;;;0.00;0.00;;;;;;;7.40;75.76;101751.00;4872802;29;20974;-75
2023/12/15 00:48:58;;;;;;;0.00;0.00;;;;;;;7.26;75.74;101746.66;4867905;29;20039;-77
2023/12/15 00:51:23;;;;;;;0.00;0.00;;;;;;;7.32;76.55;101773.03;4867231;29;20025;-77
2023/12/15 00:53:51;;;;;;;0.00;0.00;;;;;;;7.31;76.52;101793.13;4875393;29;20108;-77
2023/12/15 00:56:16;;;;;;;0.00;0.00;;;;;;;7.23;76.10;101785.16;4871932;29;20025;-75
2023/12/15 00:58:45;;;;;;;0.00;0.00;;;;;;;7.13;76.50;101775.53;4873167;29;20041;-76
2023/12/15 01:01:11;;;;;;;0.00;0.00;;;;;;;7.12;76.70;101783.91;4867272;29;20029;-76
2023/12/15 01:03:37;;;;;;;0.00;0.00;;;;;;;7.17;76.23;101792.31;4852737;29;20034;-76
2023/12/15 01:06:03;;;;;;;0.00;0.00;;;;;;;7.24;75.81;101808.59;4877840;29;20029;-77
2023/12/15 01:08:28;;;;;;;0.00;0.00;;;;;;;7.14;75.53;101788.09;4847171;29;20471;-76
2023/12/15 01:10:53;;;;;;;0.00;0.00;;;;;;;7.40;75.21;101835.38;4858476;29;20040;-76
2023/12/15 01:13:19;;;;;;;0.10;0.10;;;;;;;7.24;74.42;101795.00;4886881;29;20043;-77
2023/12/15 01:15:52;;;;;;;0.00;0.00;;;;;;;7.38;74.54;101826.59;4878015;29;20044;-76
2023/12/15 01:18:17;;;;;;;0.00;0.00;;;;;;;7.38;73.98;101815.72;4858420;29;20150;-76
2023/12/15 01:20:42;;;;;;;0.00;0.00;;;;;;;7.48;73.86;101824.28;4851240;29;20043;-76
2023/12/15 01:23:08;;;;;;;0.00;0.00;;;;;;;7.42;73.36;101822.41;4892835;29;20111;-77
2023/12/15 01:25:33;;;;;;;0.00;0.00;;;;;;;7.47;73.45;101841.66;4848699;29;20149;-75
2023/12/15 01:27:59;;;;;;;0.00;0.00;;;;;;;7.45;73.44;101832.88;4867984;29;20472;-77
2023/12/15 01:30:24;;;;;;;0.00;0.00;;;;;;;7.55;74.27;101853.38;4885114;29;20028;-76
2023/12/15 01:32:50;;;;;;;0.00;0.00;;;;;;;7.60;74.15;101869.94;4877076;29;20383;-75
2023/12/15 01:35:15;;;;;;;0.00;0.00;;;;;;;7.62;74.12;101879.56;4882081;29;20044;-76
2023/12/15 01:37:50;;;;;;;0.00;0.00;;;;;;;7.65;74.37;101875.56;4840118;29;20064;-77
2023/12/15 01:40:16;;;;;;;0.00;0.00;;;;;;;7.61;73.97;101869.72;4857014;29;20043;-75
2023/12/15 01:42:41;;;;;;;0.00;0.00;;;;;;;7.66;73.47;101877.25;4874773;29;20028;-76
2023/12/15 01:45:07;;;;;;;0.00;0.00;;;;;;;7.56;73.76;101860.50;4860809;29;20120;-75
2023/12/15 01:47:32;;;;;;;0.00;0.00;;;;;;;7.64;74.08;101885.63;4852285;29;20115;-78
2023/12/15 01:49:58;;;;;;;0.10;0.10;;;;;;;7.62;74.03;101882.28;4857877;29;20025;-75
2023/12/15 01:52:24;;;;;;;0.00;0.00;;;;;;;7.57;73.97;101881.25;4872023;29;20085;-77
2023/12/15 01:54:49;;;;;;;0.00;0.00;;;;;;;7.64;73.66;101895.69;4867190;29;20028;-77
2023/12/15 01:57:15;;;;;;;0.00;0.00;;;;;;;7.50;73.72;101873.94;4892835;29;20028;-76
2023/12/15 01:59:44;;;;;;;0.00;0.00;;;;;;;7.45;73.51;101870.97;4858373;29;20484;-75
2023/12/15 02:02:09;;;;;;;0.00;0.00;;;;;;;7.65;73.23;101913.69;4875802;29;20025;-76
2023/12/15 02:04:36;;;;;;;0.00;0.00;;;;;;;7.60;73.09;101927.09;4880130;29;20085;-76
2023/12/15 02:07:04;;;;;;;0.00;0.00;;;;;;;7.38;73.97;101900.09;4839892;29;20147;-75
2023/12/15 02:09:32;;;;;;;0.00;0.00;;;;;;;7.24;73.88;101882.06;4893640;29;20021;-75
2023/12/15 02:11:58;;;;;;;0.00;0.00;;;;;;;7.44;74.14;101923.75;4853278;29;20441;-76
2023/12/15 02:14:23;;;;;;;0.00;0.00;;;;;;;7.36;74.15;101906.78;4861035;29;20061;-76
2023/12/15 02:16:49;;;;;;;0.00;0.00;;;;;;;7.19;74.67;101898.19;4888784;29;20028;-76
2023/12/15 02:19:14;;;;;;;0.00;0.00;;;;;;;7.22;75.35;101919.53;4879038;29;20606;-75
2023/12/15 02:21:45;;;;;;;0.00;0.00;;;;;;;7.18;75.92;101942.75;4857542;29;20040;-75
2023/12/15 02:24:10;;;;;;;0.00;0.00;;;;;;;6.87;76.44;101906.06;4877327;29;20115;-75
2023/12/15 02:26:38;;;;;;;0.00;0.00;;;;;;;6.80;76.93;101916.91;4867480;29;20124;-75
2023/12/15 02:29:06;;;;;;;0.00;0.00;;;;;;;6.73;77.36;101911.47;4854349;29;20064;-76
2023/12/15 02:31:34;;;;;;;0.00;0.00;;;;;;;6.90;77.91;101954.63;4875045;29;20064;-76
2023/12/15 02:33:59;;;;;;;0.00;0.00;;;;;;;6.73;78.06;101924.22;4882447;29;20127;-75
2023/12/15 02:36:27;;;;;;;0.00;0.00;;;;;;;6.68;77.93;101922.13;4860276;29;20052;-76
2023/12/15 02:38:52;;;;;;;0.00;0.00;;;;;;;6.79;78.39;101943.28;4843348;29;20029;-76
2023/12/15 02:41:21;;;;;;;0.00;0.00;;;;;;;6.71;78.39;101940.72;4881559;29;20124;-75
2023/12/15 02:43:46;;;;;;;0.00;0.00;;;;;;;6.50;78.02;101906.38;4880635;29;20043;-76
2023/12/15 02:46:12;;;;;;;0.00;0.00;;;;;;;6.79;78.36;101950.59;4872472;29;20041;-76
2023/12/15 02:48:37;;;;;;;0.00;0.00;;;;;;;6.64;78.16;101929.00;4880422;29;20443;-74
2023/12/15 02:51:03;;;;;;;0.00;0.00;;;;;;;6.55;77.91;101920.16;4858439;29;20039;-76
2023/12/15 02:53:28;;;;;;;0.00;0.00;;;;;;;6.66;77.59;101945.94;4865546;29;20730;-76
2023/12/15 02:55:53;;;;;;;0.00;0.00;;;;;;;6.57;77.57;101939.00;4885486;29;20045;-76
2023/12/15 02:58:21;;;;;;;0.10;0.10;;;;;;;6.53;77.76;101948.63;4874962;29;20044;-76
2023/12/15 03:00:47;;;;;;;0.00;0.00;;;;;;;6.25;78.15;101944.06;4878703;29;20040;-76
2023/12/15 03:03:16;;;;;;;0.00;0.00;;;;;;;6.20;78.92;101971.00;4888615;29;20487;-76
2023/12/15 03:05:44;;;;;;;0.00;0.00;;;;;;;5.89;78.73;101972.22;4893130;29;20047;-76
2023/12/15 03:08:10;;;;;;;0.00;0.00;;;;;;;5.55;79.75;101963.78;4865892;29;20041;-76
2023/12/15 03:10:38;;;;;;;0.00;0.00;;;;;;;5.43;81.18;101981.59;4859036;29;20369;-77
2023/12/15 03:13:03;;;;;;;0.00;0.00;;;;;;;5.10;81.73;101954.16;4872248;29;20118;-76
2023/12/15 03:15:29;;;;;;;0.00;0.00;;;;;;;4.98;82.15;101961.94;4852086;29;20469;-76
2023/12/15 03:17:54;;;;;;;0.00;0.00;;;;;;;4.72;82.88;101947.88;4883925;29;20042;-77
2023/12/15 03:20:20;;;;;;;0.00;0.00;;;;;;;4.64;83.25;101956.09;4856638;29;20039;-76
2023/12/15 03:22:45;;;;;;;0.00;0.00;;;;;;;4.86;84.50;101991.41;4878912;29;20116;-77
2023/12/15 03:25:18;;;;;;;0.00;0.00;;;;;;;4.71;84.05;101972.47;4885583;29;20041;-75
2023/12/15 03:27:43;;;;;;;0.00;0.00;;;;;;;4.62;84.61;101955.47;4864146;29;20464;-76
2023/12/15 03:30:09;;;;;;;0.00;0.00;;;;;;;4.82;84.72;101998.22;4886261;29;20133;-75
2023/12/15 03:32:34;;;;;;;0.00;0.00;;;;;;;4.61;85.09;101972.75;4860798;29;20049;-76
2023/12/15 03:35:00;;;;;;;0.00;0.00;;;;;;;4.68;85.51;101987.22;4874971;29;20443;-75
2023/12/15 03:37:25;;;;;;;0.10;0.10;;;;;;;4.62;85.27;101977.13;4862059;29;20065;-76
2023/12/15 03:39:51;;;;;;;0.00;0.00;;;;;;;4.75;84.39;102003.59;4855634;29;20044;-75
2023/12/15 03:42:18;;;;;;;0.00;0.00;;;;;;;4.60;84.88;101984.63;4885380;29;20029;-76
2023/12/15 03:44:44;;;;;;;0.10;0.10;;;;;;;4.46;84.75;101958.38;4863564;29;20389;-75
2023/12/15 03:47:12;;;;;;;0.00;0.00;;;;;;;4.51;85.73;101972.19;4866323;29;20094;-76
2023/12/15 03:49:37;;;;;;;0.00;0.00;;;;;;;4.57;85.55;101971.47;4857326;29;20029;-75
2023/12/15 03:52:05;;;;;;;0.00;0.00;;;;;;;4.60;85.67;101971.09;4873888;29;20351;-76
2023/12/15 03:54:31;;;;;;;0.00;0.00;;;;;;;4.60;85.02;101968.38;4867818;29;20075;-75
2023/12/15 03:56:57;;;;;;;0.00;0.00;;;;;;;4.77;85.94;101987.94;4852425;29;20124;-77
2023/12/15 03:59:23;;;;;;;0.00;0.00;;;;;;;4.74;85.29;101976.66;4871244;29;20056;-75
2023/12/15 04:01:53;;;;;;;0.00;0.00;;;;;;;4.78;84.70;101975.25;4867358;29;20045;-74
2023/12/15 04:04:18;;;;;;;0.00;0.00;;;;;;;5.04;84.89;101994.56;4865505;29;20029;-75
2023/12/15 04:06:44;;;;;;;0.00;0.00;;;;;;;5.21;84.63;101994.31;4851558;29;20044;-76
2023/12/15 04:09:10;;;;;;;0.10;0.10;;;;;;;5.20;84.05;101992.66;4870410;29;20074;-76
2023/12/15 04:11:37;;;;;;;0.00;0.00;;;;;;;5.23;84.06;101997.69;4863868;29;20104;-75
2023/12/15 04:14:09;;;;;;;0.10;0.10;;;;;;;5.42;83.34;101999.75;4861646;29;20044;-75
2023/12/15 04:16:35;;;;;;;0.10;0.10;;;;;;;5.40;83.08;101979.28;4866198;29;20548;-76
2023/12/15 04:19:02;;;;;;;0.00;0.00;;;;;;;5.45;82.95;101967.84;4871741;29;20041;-75
2023/12/15 04:21:28;;;;;;;0.00;0.00;;;;;;;5.60;82.67;101983.00;4883680;29;20124;-76
2023/12/15 04:23:53;;;;;;;0.00;0.00;;;;;;;5.55;82.83;101962.94;4874266;29;20125;-75
2023/12/15 04:26:24;;;;;;;0.00;0.00;;;;;;;5.59;81.95;101958.78;4851073;29;20055;-76
2023/12/15 04:28:49;;;;;;;0.00;0.00;;;;;;;5.81;81.61;101992.19;4857589;29;20203;-76
2023/12/15 04:31:15;;;;;;;0.00;0.00;;;;;;;5.63;81.09;101965.50;4864111;29;20299;-76
2023/12/15 04:33:44;;;;;;;0.00;0.00;;;;;;;5.92;81.71;102007.94;4861280;29;20440;-76
2023/12/15 04:36:11;;;;;;;0.00;0.00;;;;;;;5.96;80.99;102024.69;4876235;29;20048;-77
2023/12/15 04:38:37;;;;;;;0.00;0.00;;;;;;;5.99;81.69;102023.50;4867026;29;20040;-76
2023/12/15 04:41:02;;;;;;;0.10;0.10;;;;;;;5.79;81.44;101996.16;4865157;29;20490;-76
2023/12/15 04:43:28;;;;;;;0.00;0.00;;;;;;;5.85;81.50;102011.63;4860037;29;20029;-76
2023/12/15 04:45:55;;;;;;;0.00;0.00;;;;;;;5.99;81.50;102026.22;4862862;29;20052;-76
2023/12/15 04:48:21;;;;;;;0.00;0.00;;;;;;;5.90;81.11;102026.31;4870537;29;20479;-76
2023/12/15 04:50:47;;;;;;;0.00;0.00;;;;;;;5.94;82.04;102029.47;4854866;29;20037;-77
2023/12/15 04:53:12;;;;;;;0.00;0.00;;;;;;;5.84;81.75;102015.38;4862263;29;20033;-76
2023/12/15 04:55:38;;;;;;;0.10;0.10;;;;;;;5.94;82.09;102030.31;4854111;29;20144;-76
2023/12/15 04:58:03;;;;;;;0.00;0.00;;;;;;;6.00;82.10;102026.03;4870355;29;20033;-75
2023/12/15 05:00:29;;;;;;;0.00;0.00;;;;;;;6.09;82.11;102024.81;4866831;29;20496;-76
2023/12/15 05:02:54;;;;;;;0.00;0.00;;;;;;;6.25;81.52;102039.13;4867483;29;20042;-75
2023/12/15 05:05:20;;;;;;;0.00;0.00;;;;;;;6.13;81.61;102024.44;4862007;29;20072;-76
2023/12/15 05:07:45;;;;;;;0.00;0.00;;;;;;;6.24;80.95;102049.16;4862525;29;20053;-76
2023/12/15 05:10:11;;;;;;;0.00;0.00;;;;;;;6.14;80.46;102042.41;4862030;29;20061;-74
2023/12/15 05:12:39;;;;;;;0.00;0.00;;;;;;;6.13;80.89;102052.41;4856707;29;20049;-76
2023/12/15 05:15:05;;;;;;;0.00;0.00;;;;;;;6.01;81.07;102043.97;4870477;29;20493;-76
2023/12/15 05:17:32;;;;;;;0.00;0.00;;;;;;;6.27;81.45;102080.56;4866364;29;20032;-77
2023/12/15 05:20:06;;;;;;;0.00;0.00;;;;;;;6.04;81.82;102054.44;4877798;29;20033;-75
2023/12/15 05:22:32;;;;;;;0.00;0.00;;;;;;;6.03;81.64;102047.34;4864673;29;20028;-76
2023/12/15 05:25:00;;;;;;;0.00;0.00;;;;;;;6.13;81.70;102073.31;4845621;29;20037;-76
2023/12/15 05:27:25;;;;;;;0.00;0.00;;;;;;;5.90;81.91;102039.88;4859109;29;20036;-76
2023/12/15 05:29:51;;;;;;;0.00;0.00;;;;;;;5.80;82.81;102035.81;4870236;29;20041;-77
2023/12/15 05:32:16;;;;;;;0.00;0.00;;;;;;;5.89;82.90;102050.94;4868518;29;20025;-76
2023/12/15 05:34:44;;;;;;;0.00;0.00;;;;;;;5.56;82.91;102011.59;4881692;29;20029;-77
2023/12/15 05:37:17;;;;;;;0.00;0.00;;;;;;;5.71;83.01;102043.25;4875684;29;20060;-75
2023/12/15 05:39:44;;;;;;;0.00;0.00;;;;;;;5.79;83.13;102064.00;4882980;29;20044;-77
2023/12/15 05:42:10;;;;;;;0.00;0.00;;;;;;;5.77;83.20;102067.75;4859866;29;20048;-76
2023/12/15 05:44:38;;;;;;;0.00;0.00;;;;;;;5.72;83.82;102072.94;4837397;29;20037;-76
2023/12/15 05:47:07;;;;;;;0.00;0.00;;;;;;;5.73;83.37;102090.88;4873653;29;20124;-76
2023/12/15 05:49:37;;;;;;;0.00;0.00;;;;;;;5.52;83.51;102066.44;4867763;29;20036;-75
2023/12/15 05:52:03;;;;;;;0.00;0.00;;;;;;;5.50;84.30;102068.50;4882382;29;20112;-76
2023/12/15 05:54:31;;;;;;;0.00;0.00;;;;;;;5.51;84.21;102087.31;4856451;29;20178;-76
2023/12/15 05:56:56;;;;;;;0.00;0.00;;;;;;;5.21;84.12;102051.28;4872697;29;20492;-77
2023/12/15 05:59:21;;;;;;;0.00;0.00;;;;;;;5.18;84.90;102065.22;4863683;29;20116;-76
2023/12/15 06:01:47;;;;;;;0.00;0.00;;;;;;;5.00;85.32;102050.19;4857148;29;20026;-77
2023/12/15 06:04:12;;;;;;;0.00;0.00;;;;;;;4.89;85.15;102045.22;4883526;29;20035;-77
2023/12/15 06:06:38;;;;;;;0.03;0.03;;;;;;;4.86;85.42;102067.31;4865526;29;20144;-76
2023/12/15 06:09:03;;;;;;;0.00;0.00;;;;;;;4.80;85.87;102081.59;4865522;29;20093;-77
2023/12/15 06:11:29;;;;;;;0.00;0.00;;;;;;;4.85;86.33;102103.59;4872439;29;20021;-77
2023/12/15 06:13:54;;;;;;;0.00;0.00;;;;;;;4.64;86.10;102091.59;4877120;29;20032;-77
2023/12/15 06:16:21;;;;;;;0.00;0.00;;;;;;;4.48;87.03;102089.06;4865487;29;20026;-77
2023/12/15 06:18:49;;;;;;;0.00;0.00;;;;;;;4.54;87.62;102113.56;4871574;29;20112;-76
2023/12/15 06:21:25;;;;;;;0.10;0.10;;;;;;;4.36;87.35;102089.50;4858264;29;20406;-77
2023/12/15 06:23:52;;;;;;;0.00;0.00;;;;;;;4.46;87.43;102104.66;4873984;29;20391;-77
2023/12/15 06:26:21;;;;;;;0.00;0.00;;;;;;;4.39;87.66;102085.59;4871272;29;20086;-76
2023/12/15 06:28:48;;;;;;;0.00;0.00;;;;;;;4.59;88.02;102114.88;4858439;29;20047;-78
2023/12/15 06:31:38;;;;;;;0.03;0.03;;;;;;;4.55;87.63;102114.38;4878897;29;20032;-78
2023/12/15 06:34:12;;;;;;;0.00;0.00;;;;;;;4.33;88.54;102095.28;4874509;29;20131;-77
2023/12/15 06:36:37;;;;;;;;;;;;;;;4.62;88.45;102145.16;4857475;29;20041;-78
2023/12/15 06:39:02;;;;;;;0.00;0.00;;;;;;;4.48;88.81;102133.28;4872513;29;19916;-77
2023/12/15 06:41:28;;;;;;;0.00;0.00;;;;;;;4.53;88.85;102143.56;4866440;29;20659;-77
2023/12/15 06:43:53;;;;;;;0.00;0.00;;;;;;;4.41;88.63;102140.44;4857536;29;20129;-77
2023/12/15 06:46:19;;;;;;;0.00;0.00;;;;;;;4.21;88.31;102129.25;4868882;29;20396;-76
2023/12/15 06:48:44;;;;;;;0.00;0.00;;;;;;;4.09;88.87;102141.53;4865466;29;20029;-77
2023/12/15 06:51:10;;;;;;;0.00;0.00;;;;;;;3.88;89.54;102145.72;4874247;29;20041;-77
2023/12/15 06:53:35;;;;;;;0.00;0.00;;;;;;;3.81;90.84;102150.19;4872970;29;20507;-75
2023/12/15 06:56:01;;;;;;;0.10;0.10;;;;;;;3.65;91.43;102137.59;4850558;29;20036;-78
2023/12/15 06:58:27;;;;;;;0.00;0.00;;;;;;;3.61;91.81;102142.53;4871078;29;20120;-79
2023/12/15 07:00:53;;;;;;;0.00;0.00;;;;;;;3.47;91.84;102137.88;4870329;29;20119;-78
2023/12/15 07:03:19;;;;;;;0.00;0.00;;;;;;;3.39;92.85;102127.94;4858409;29;20123;-79
2023/12/15 07:05:44;;;;;;;0.00;0.00;;;;;;;3.26;93.39;102114.97;4843015;29;20115;-79
2023/12/15 07:08:10;;;;;;;0.00;0.00;;;;;;;3.31;94.24;102147.75;4859856;29;20048;-81
2023/12/15 07:10:37;;;;;;;0.00;0.00;;;;;;;3.22;94.24;102139.84;4886790;29;20033;-80
2023/12/15 07:13:03;;;;;;;0.00;0.00;;;;;;;2.93;94.08;102106.16;4868934;29;20097;-77
2023/12/15 07:15:31;;;;;;;0.00;0.00;;;;;;;3.02;95.15;102123.19;4863479;29;20025;-79
2023/12/15 07:17:57;;;;;;;0.00;0.00;;;;;;;3.04;96.01;102126.53;4866698;29;20074;-80
2023/12/15 07:20:25;;;;;;;0.00;0.00;;;;;;;3.39;96.45;102173.91;4864539;29;20034;-79
2023/12/15 07:22:51;;;;;;;0.10;0.10;;;;;;;3.49;97.65;102184.53;4858220;29;20037;-78
2023/12/15 07:25:16;;;;;;;0.00;0.00;;;;;;;3.58;98.82;102183.47;4859993;29;20044;-83
2023/12/15 07:27:45;;;;;;;0.00;0.00;;;;;;;3.48;99.89;102166.59;4870198;29;20040;-80
2023/12/15 07:30:12;;;;;;;0.00;0.00;;;;;;;3.77;100.00;102200.28;4876401;29;20029;-80
2023/12/15 07:32:37;;;;;;;0.00;0.00;;;;;;;3.77;100.00;102192.16;4871510;29;20088;-80
2023/12/15 07:35:04;;;;;;;0.00;0.00;;;;;;;3.99;100.00;102236.53;4847614;29;20781;-79
2023/12/15 07:37:29;;;;;;;0.00;0.00;;;;;;;4.02;100.00;102228.88;4856790;29;20049;-78
2023/12/15 07:39:55;;;;;;;0.00;0.00;;;;;;;4.21;100.00;102243.00;4870955;29;20476;-80
2023/12/15 07:42:20;;;;;;;0.00;0.00;;;;;;;4.29;100.00;102261.91;4850776;29;20110;-80
2023/12/15 07:44:46;;;;;;;0.00;0.00;;;;;;;4.31;100.00;102259.84;4871029;29;20471;-81
2023/12/15 07:47:16;;;;;;;0.00;0.00;;;;;;;4.39;100.00;102285.22;4866799;29;20131;-82
2023/12/15 07:49:41;;;;;;;0.03;0.03;;;;;;;4.10;100.00;102246.09;4874392;29;20953;-84
2023/12/15 07:52:09;;;;;;;0.00;0.00;;;;;;;4.29;100.00;102272.75;4870837;29;20366;-83
2023/12/15 07:54:45;;;;;;;0.10;0.10;;;;;;;4.64;100.00;102297.53;4877215;29;20576;-82
2023/12/15 07:57:13;;;;;;;0.00;0.00;;;;;;;4.79;100.00;102281.38;4874292;29;20029;-78
2023/12/15 07:59:38;;;;;;;0.00;0.00;;;;;;;5.02;100.00;102288.59;4873041;29;20402;-77
2023/12/15 08:02:04;;;;;;;0.00;0.00;;;;;;;5.07;99.87;102308.72;4856395;29;20026;-79
2023/12/15 08:04:29;;;;;;;0.10;0.10;;;;;;;4.71;99.74;102271.41;4875556;29;20031;-84
2023/12/15 08:06:55;;;;;;;0.00;0.00;;;;;;;4.71;100.00;102293.09;4870755;29;20037;-79
2023/12/15 08:09:36;;;;;;;0.00;0.00;;;;;;;4.55;100.00;102291.34;4883753;29;20124;-83
2023/12/15 08:12:05;;;;;;;0.00;0.00;;;;;;;4.47;100.00;102296.00;4876351;29;20679;-78
2023/12/15 08:14:33;;;;;;;0.10;0.10;;;;;;;4.30;99.96;102285.25;4875664;29;20187;-78
2023/12/15 08:16:58;;;;;;;0.00;0.00;;;;;;;4.43;100.00;102310.94;4837067;29;20076;-78
2023/12/15 08:19:24;;;;;;;0.00;0.00;;;;;;;4.39;100.00;102323.97;4853244;29;20070;-78
2023/12/15 08:21:49;;;;;;;0.00;0.00;;;;;;;4.30;100.00;102320.47;4847776;29;20033;-78
2023/12/15 08:24:15;;;;;;;0.00;0.00;;;;;;;4.30;100.00;102328.59;4869217;29;20852;-80
2023/12/15 08:26:40;;;;;;;0.00;0.00;;;;;;;4.31;100.00;102311.31;4853032;29;20045;-80
2023/12/15 08:29:06;;;;;;;0.00;0.00;;;;;;;4.52;99.58;102342.34;4872438;29;20048;-80
2023/12/15 08:31:31;;;;;;;0.00;0.00;;;;;;;4.62;98.82;102342.13;4873809;29;20523;-78
2023/12/15 08:33:57;;;;;;;0.00;0.00;;;;;;;4.75;99.01;102344.25;4876889;29;20064;-78
2023/12/15 08:36:23;;;;;;;0.00;0.00;;;;;;;5.06;98.32;102355.00;4866698;29;20162;-79
2023/12/15 08:38:48;;;;;;;0.00;0.00;;;;;;;5.49;97.48;102382.47;4868865;29;20815;-78
2023/12/15 08:41:14;;;;;;;0.00;0.00;;;;;;;5.71;95.89;102375.28;4848749;29;20033;-79
2023/12/15 08:43:39;;;;;;;0.00;0.00;;;;;;;5.77;95.56;102363.66;4877408;29;20029;-80
2023/12/15 08:46:05;;;;;;;0.00;0.00;;;;;;;5.87;95.11;102378.81;4864914;29;20040;-80
2023/12/15 08:48:30;;;;;;;0.00;0.00;;;;;;;5.92;94.12;102384.56;4856924;29;20044;-80
2023/12/15 08:50:56;;;;;;;0.00;0.00;;;;;;;6.00;94.55;102410.81;4866826;29;20095;-79
2023/12/15 08:53:21;;;;;;;0.00;0.00;;;;;;;6.01;94.58;102404.34;4858069;29;20032;-79
2023/12/15 08:55:48;;;;;;;0.00;0.00;;;;;;;6.12;93.98;102412.03;4863644;29;20067;-78
2023/12/15 08:58:14;;;;;;;0.00;0.00;;;;;;;6.10;94.03;102406.78;4877486;29;20029;-79
2023/12/15 09:00:40;;;;;;;0.00;0.00;;;;;;;6.10;94.02;102393.22;4868382;29;20040;-78
2023/12/15 09:03:07;;;;;;;0.00;0.00;;;;;;;6.29;93.49;102427.13;4870429;29;20183;-78
2023/12/15 09:05:33;;;;;;;0.00;0.00;;;;;;;6.21;92.90;102412.78;4885847;29;20029;-81
2023/12/15 09:07:59;;;;;;;0.00;0.00;;;;;;;6.32;93.19;102420.44;4870511;29;20045;-77
2023/12/15 09:10:26;;;;;;;0.00;0.00;;;;;;;6.33;92.29;102424.84;4864101;29;20029;-78
2023/12/15 09:12:52;;;;;;;0.00;0.00;;;;;;;6.45;92.14;102436.94;4882258;29;20040;-80
2023/12/15 09:15:17;;;;;;;0.00;0.00;;;;;;;6.49;92.24;102425.69;4884693;29;20024;-78
2023/12/15 09:17:46;;;;;;;0.00;0.00;;;;;;;6.59;91.43;102426.22;4883768;29;20056;-78
2023/12/15 09:20:12;;;;;;;0.00;0.00;;;;;;;6.66;91.34;102429.00;4867819;29;20038;-78
2023/12/15 09:22:39;;;;;;;0.00;0.00;;;;;;;6.73;90.80;102428.06;4885140;29;20403;-79
2023/12/15 09:25:05;;;;;;;0.00;0.00;;;;;;;6.66;90.75;102404.53;4859947;29;20028;-80
2023/12/15 09:27:31;;;;;;;0.00;0.00;;;;;;;6.79;91.08;102419.16;4857837;29;20032;-78
2023/12/15 09:29:56;;;;;;;0.00;0.00;;;;;;;6.94;90.18;102437.31;4878039;29;20614;-79
2023/12/15 09:32:22;;;;;;;0.00;0.00;;;;;;;6.75;90.30;102398.81;4851172;29;20040;-78
2023/12/15 09:34:47;;;;;;;0.00;0.00;;;;;;;6.99;90.20;102426.66;4863986;29;20120;-78
2023/12/15 09:37:13;;;;;;;0.00;0.00;;;;;;;7.06;89.76;102430.31;4865733;29;20062;-80
2023/12/15 09:39:39;;;;;;;0.00;0.00;;;;;;;7.18;89.82;102429.78;4877834;29;20099;-79
2023/12/15 09:42:05;;;;;;;0.00;0.00;;;;;;;7.22;89.08;102433.81;4877783;29;20904;-81
2023/12/15 09:44:31;;;;;;;0.10;0.10;;;;;;;7.19;88.91;102426.03;4867937;29;20040;-79
2023/12/15 09:46:58;;;;;;;0.00;0.00;;;;;;;7.30;88.61;102444.56;4868482;29;20029;-79
2023/12/15 09:49:24;;;;;;;0.00;0.00;;;;;;;7.36;88.92;102454.69;4877732;29;20441;-79
2023/12/15 09:51:51;;;;;;;0.00;0.00;;;;;;;7.40;88.36;102450.50;4878664;29;20041;-80
2023/12/15 09:54:17;;;;;;;0.00;0.00;;;;;;;7.40;88.71;102439.63;4869565;29;20464;-79
2023/12/15 09:56:43;;;;;;;0.00;0.00;;;;;;;7.42;88.76;102445.72;4877991;29;20034;-79
2023/12/15 09:59:09;;;;;;;0.00;0.00;;;;;;;7.36;87.94;102438.34;4869568;29;20381;-81
2023/12/15 10:01:38;;;;;;;0.00;0.00;;;;;;;7.29;87.83;102440.16;4870571;29;20044;-80
2023/12/15 10:04:05;;;;;;;0.00;0.00;;;;;;;7.25;88.08;102423.38;4879625;29;20052;-80
2023/12/15 10:06:36;;;;;;;0.00;0.00;;;;;;;7.46;88.10;102466.09;4882480;29;20511;-76
2023/12/15 10:09:13;;;;;;;0.00;0.00;;;;;;;7.38;87.73;102440.88;4869282;29;20029;-78
2023/12/15 10:11:39;;;;;;;0.00;0.00;;;;;;;7.42;88.05;102436.72;4863061;29;20037;-78
2023/12/15 10:14:07;;;;;;;0.00;0.00;;;;;;;7.44;87.40;102440.91;4859874;29;20040;-78
2023/12/15 10:16:33;;;;;;;0.00;0.00;;;;;;;7.54;87.93;102439.75;4868950;29;20029;-80
2023/12/15 10:19:02;;;;;;;0.00;0.00;;;;;;;7.74;87.09;102473.44;4869622;29;20033;-80
2023/12/15 10:21:30;;;;;;;0.00;0.00;;;;;;;7.78;86.67;102461.13;4858627;29;20030;-79
2023/12/15 10:23:59;;;;;;;0.00;0.00;;;;;;;7.85;86.57;102456.53;4868227;29;20159;-81
2023/12/15 10:26:26;;;;;;;0.00;0.00;;;;;;;7.94;85.88;102467.31;4839109;29;20464;-82
2023/12/15 10:28:53;;;;;;;0.00;0.00;;;;;;;7.94;85.55;102472.75;4877020;29;20037;-80
2023/12/15 10:31:21;;;;;;;0.00;0.00;;;;;;;7.80;85.35;102461.75;4863347;29;20033;-77
2023/12/15 10:33:47;;;;;;;0.00;0.00;;;;;;;7.83;84.87;102455.91;4865674;29;20040;-78
2023/12/15 10:36:14;;;;;;;0.00;0.00;;;;;;;8.04;84.04;102473.25;4860759;29;20061;-78
2023/12/15 10:38:40;;;;;;;0.00;0.00;;;;;;;8.15;84.07;102472.69;4856312;29;20037;-77
2023/12/15 10:41:07;;;;;;;0.00;0.00;;;;;;;8.29;83.76;102459.13;4860431;29;20053;-78
2023/12/15 10:43:34;;;;;;;0.00;0.00;;;;;;;8.55;83.42;102475.66;4865363;29;20045;-79
2023/12/15 10:46:01;;;;;;;0.00;0.00;;;;;;;8.68;83.13;102476.78;4874643;29;20037;-78
2023/12/15 10:48:27;;;;;;;0.00;0.00;;;;;;;8.65;82.42;102449.91;4873551;29;20041;-78
2023/12/15 10:50:56;;;;;;;0.00;0.00;;;;;;;8.68;82.69;102452.25;4857432;29;20045;-78
2023/12/15 10:53:23;;;;;;;0.00;0.00;;;;;;;8.97;82.29;102477.53;4867117;29;20115;-77
2023/12/15 10:55:49;;;;;;;0.00;0.00;;;;;;;9.07;81.30;102467.91;4858398;29;20094;-78
2023/12/15 10:58:15;;;;;;;0.00;0.00;;;;;;;9.29;80.96;102475.94;4854819;29;20827;-77
2023/12/15 11:00:41;;;;;;;0.00;0.00;;;;;;;9.43;80.38;102482.22;4859312;29;20033;-74
2023/12/15 11:03:12;;;;;;;0.00;0.00;;;;;;;9.52;79.81;102478.28;4857475;29;20041;-77
2023/12/15 11:05:40;;;;;;;0.00;0.00;;;;;;;9.59;79.75;102470.06;4868456;29;20492;-79
2023/12/15 11:08:06;;;;;;;0.00;0.00;;;;;;;9.78;78.64;102471.13;4869303;29;20052;-78
2023/12/15 11:10:50;;;;;;;0.00;0.00;;;;;;;9.96;77.59;102487.72;4848983;29;20057;-78
2023/12/15 11:13:52;;;;;;;0.00;0.00;;;;;;;10.03;77.87;102497.81;4883124;29;21913;-80
2023/12/15 11:16:18;;;;;;;0.05;0.05;;;;;;;10.05;77.33;102495.72;4867743;29;20271;-79
2023/12/15 11:18:44;;;;;;;0.00;0.00;;;;;;;10.06;77.25;102500.97;4874656;29;20037;-78
2023/12/15 11:21:10;;;;;;;0.00;0.00;;;;;;;10.06;76.92;102497.38;4849320;29;20037;-78
2023/12/15 11:23:57;;;;;;;0.00;0.00;;;;;;;9.90;76.35;102501.38;4840317;29;20417;-78
2023/12/15 11:26:33;;;;;;;0.00;0.00;;;;;;;9.84;77.15;102494.91;4861329;29;20029;-80
2023/12/15 11:29:02;;;;;;;0.00;0.00;;;;;;;9.70;76.44;102487.75;4871978;29;20025;-79
2023/12/15 11:31:28;;;;;;;0.00;0.00;;;;;;;9.63;76.52;102495.91;4856689;29;20037;-78